createdAt,value
2023-05-14T00:01:53.227Z,23.23
2023-05-14T00:04:20.183Z,22.77
2023-05-14T00:06:47.095Z,25.40
2023-05-14T00:09:13.984Z,34.70
2023-05-14T00:11:40.926Z,31.07
2023-05-14T00:14:07.813Z,29.40
2023-05-14T00:16:34.821Z,21.37
2023-05-14T00:19:01.847Z,25.03
2023-05-14T00:21:28.751Z,25.53
2023-05-14T00:23:55.688Z,26.20
2023-05-14T00:26:22.696Z,21.00
2023-05-14T00:28:49.812Z,22.20
2023-05-14T00:31:16.744Z,24.43
2023-05-14T00:33:43.662Z,30.53
2023-05-14T00:36:10.847Z,22.20
2023-05-14T00:38:37.770Z,25.80
2023-05-14T00:41:04.779Z,22.50
2023-05-14T00:43:33.181Z,21.33
2023-05-14T00:46:00.404Z,22.43
2023-05-14T00:48:27.342Z,28.20
2023-05-14T00:50:54.432Z,26.93
2023-05-14T00:53:21.626Z,20.37
2023-05-14T00:55:50.057Z,22.50
2023-05-14T00:58:18.061Z,22.77
2023-05-14T01:00:45.449Z,22.93
2023-05-14T01:03:12.436Z,20.57
2023-05-14T01:06:29.216Z,20.30
2023-05-14T01:09:09.175Z,22.27
2023-05-14T01:12:02.952Z,20.70
2023-05-14T01:14:59.626Z,19.67
2023-05-14T01:17:30.367Z,20.23
2023-05-14T01:19:58.148Z,21.30
2023-05-14T01:22:25.467Z,20.87
2023-05-14T01:24:52.352Z,22.83
2023-05-14T01:27:34.480Z,21.97
2023-05-14T01:30:35.483Z,20.20
2023-05-14T01:33:06.883Z,25.60
2023-05-14T01:35:34.033Z,17.80
2023-05-14T01:38:05.244Z,26.07
2023-05-14T01:40:33.908Z,19.13
2023-05-14T01:43:02.560Z,21.83
2023-05-14T01:45:31.073Z,26.00
2023-05-14T01:47:59.647Z,22.80
2023-05-14T01:50:26.617Z,20.27
2023-05-14T01:52:56.350Z,29.00
2023-05-14T01:55:26.966Z,18.40
2023-05-14T01:57:54.518Z,20.47
2023-05-14T02:00:23.931Z,36.33
2023-05-14T02:02:51.190Z,20.47
2023-05-14T02:05:18.210Z,17.23
2023-05-14T02:07:45.151Z,20.13
2023-05-14T02:10:12.048Z,22.20
2023-05-14T02:12:38.931Z,25.57
2023-05-14T02:15:06.560Z,19.60
2023-05-14T02:17:33.638Z,19.33
2023-05-14T02:20:00.712Z,22.03
2023-05-14T02:22:27.555Z,23.23
2023-05-14T02:24:54.410Z,21.13
2023-05-14T02:27:21.393Z,18.60
2023-05-14T02:29:48.253Z,21.00
2023-05-14T02:32:15.269Z,19.20
2023-05-14T02:34:42.134Z,17.90
2023-05-14T02:37:09.023Z,21.03
2023-05-14T02:39:35.889Z,26.50
2023-05-14T02:42:02.752Z,21.53
2023-05-14T02:44:31.662Z,18.70
2023-05-14T02:46:58.616Z,17.93
2023-05-14T02:49:25.563Z,20.47
2023-05-14T02:51:54.319Z,22.93
2023-05-14T02:54:21.313Z,18.57
2023-05-14T02:56:48.380Z,20.63
2023-05-14T02:59:15.281Z,26.70
2023-05-14T03:01:42.603Z,21.97
2023-05-14T03:04:10.052Z,21.00
2023-05-14T03:06:36.940Z,24.70
2023-05-14T03:09:03.872Z,20.47
2023-05-14T03:11:30.896Z,16.90
2023-05-14T03:13:57.814Z,23.13
2023-05-14T03:16:24.795Z,18.10
2023-05-14T03:18:51.706Z,16.37
2023-05-14T03:21:18.732Z,18.53
2023-05-14T03:23:45.724Z,20.20
2023-05-14T03:26:12.657Z,17.77
2023-05-14T03:28:40.799Z,16.73
2023-05-14T03:31:07.827Z,16.63
2023-05-14T03:33:34.781Z,18.50
2023-05-14T03:36:01.740Z,21.23
2023-05-14T03:38:28.635Z,20.20
2023-05-14T03:40:55.606Z,19.67
2023-05-14T03:43:22.494Z,20.93
2023-05-14T03:45:52.529Z,15.10
2023-05-14T03:48:20.516Z,18.43
2023-05-14T03:50:47.674Z,34.10
2023-05-14T03:53:14.679Z,20.50
2023-05-14T03:55:41.576Z,18.40
2023-05-14T03:58:14.148Z,22.00
2023-05-14T04:00:44.425Z,24.90
2023-05-14T04:03:11.818Z,17.50
2023-05-14T04:05:38.876Z,16.03
2023-05-14T04:08:06.159Z,16.53
2023-05-14T04:10:33.102Z,14.93
2023-05-14T04:13:00.799Z,17.53
2023-05-14T04:15:32.117Z,20.67
2023-05-14T04:17:59.089Z,19.20
2023-05-14T04:20:26.078Z,20.53
2023-05-14T04:22:54.088Z,20.20
2023-05-14T04:25:21.055Z,20.00
2023-05-14T04:27:47.948Z,20.60
2023-05-14T04:30:15.051Z,27.53
2023-05-14T04:32:41.997Z,23.63
2023-05-14T04:35:10.216Z,23.40
2023-05-14T04:37:37.260Z,20.47
2023-05-14T04:40:05.778Z,24.40
2023-05-14T04:42:32.700Z,19.93
2023-05-14T04:44:59.616Z,24.70
2023-05-14T04:47:26.652Z,23.30
2023-05-14T04:49:53.551Z,20.60
2023-05-14T04:52:20.472Z,26.87
2023-05-14T04:54:47.421Z,30.43
2023-05-14T04:57:14.394Z,21.80
2023-05-14T04:59:41.309Z,24.43
2023-05-14T05:02:08.383Z,33.97
2023-05-14T05:04:35.291Z,21.77
2023-05-14T05:07:02.166Z,21.50
2023-05-14T05:09:29.045Z,20.20
2023-05-14T05:11:56.056Z,21.63
2023-05-14T05:14:22.938Z,23.60
2023-05-14T05:16:50.716Z,31.87
2023-05-14T05:19:17.790Z,25.17
2023-05-14T05:21:44.735Z,33.90
2023-05-14T05:24:11.641Z,22.03
2023-05-14T05:26:38.518Z,23.27
2023-05-14T05:29:05.996Z,22.63
2023-05-14T05:31:33.068Z,24.13
2023-05-14T05:34:00.742Z,34.17
2023-05-14T05:36:27.647Z,22.90
2023-05-14T05:38:55.426Z,22.10
2023-05-14T05:41:22.533Z,22.60
2023-05-14T05:43:49.444Z,27.77
2023-05-14T05:46:16.438Z,24.57
2023-05-14T05:48:43.363Z,21.77
2023-05-14T05:51:10.296Z,23.63
2023-05-14T05:53:37.208Z,22.23
2023-05-14T05:56:04.139Z,21.40
2023-05-14T05:58:31.013Z,24.70
2023-05-14T06:00:58.227Z,21.90
2023-05-14T06:03:25.303Z,19.70
2023-05-14T06:05:52.709Z,24.60
2023-05-14T06:08:19.737Z,24.07
2023-05-14T06:10:47.672Z,20.20
2023-05-14T06:13:14.714Z,19.90
2023-05-14T06:15:41.672Z,21.70
2023-05-14T06:18:08.745Z,21.33
2023-05-14T06:20:35.735Z,26.10
2023-05-14T06:23:02.624Z,20.90
2023-05-14T06:25:29.560Z,22.07
2023-05-14T06:27:56.469Z,24.50
2023-05-14T06:30:23.656Z,25.37
2023-05-14T06:32:51.760Z,20.70
2023-05-14T06:35:19.215Z,23.70
2023-05-14T06:37:46.261Z,21.73
2023-05-14T06:40:15.652Z,19.57
2023-05-14T06:42:42.561Z,21.60
2023-05-14T06:45:09.768Z,19.57
2023-05-14T06:47:36.710Z,16.87
2023-05-14T06:50:03.870Z,17.80
2023-05-14T06:52:30.792Z,19.30
2023-05-14T06:54:57.671Z,19.30
2023-05-14T06:57:24.711Z,26.07
2023-05-14T06:59:51.621Z,18.20
2023-05-14T07:02:18.535Z,17.53
2023-05-14T07:04:45.699Z,19.30
2023-05-14T07:07:15.444Z,18.00
2023-05-14T07:09:42.748Z,17.20
2023-05-14T07:12:09.736Z,15.53
2023-05-14T07:14:36.653Z,13.80
2023-05-14T07:17:03.675Z,20.00
2023-05-14T07:19:30.677Z,20.20
2023-05-14T07:21:58.124Z,14.70
2023-05-14T07:24:25.016Z,13.50
2023-05-14T07:26:51.954Z,20.80
2023-05-14T07:29:18.841Z,15.20
2023-05-14T07:31:45.760Z,21.77
2023-05-14T07:34:12.861Z,13.30
2023-05-14T07:36:39.859Z,12.73
2023-05-14T07:39:06.758Z,20.20
2023-05-14T07:41:33.702Z,13.60
2023-05-14T07:44:00.682Z,17.73
2023-05-14T07:46:27.573Z,25.03
2023-05-14T07:48:54.495Z,16.30
2023-05-14T07:51:21.381Z,13.80
2023-05-14T07:53:48.266Z,14.67
2023-05-14T07:56:15.235Z,13.63
2023-05-14T07:58:42.166Z,15.13
2023-05-14T08:01:09.217Z,13.50
2023-05-14T08:03:36.242Z,15.50
2023-05-14T08:06:03.926Z,14.70
2023-05-14T08:08:30.980Z,12.10
2023-05-14T08:10:57.975Z,19.13
2023-05-14T08:13:24.899Z,13.50
2023-05-14T08:15:52.280Z,16.60
2023-05-14T08:18:19.173Z,16.73
2023-05-14T08:20:46.088Z,11.00
2023-05-14T08:23:13.052Z,13.57
2023-05-14T08:25:40.059Z,13.40
2023-05-14T08:28:07.584Z,13.47
2023-05-14T08:30:34.688Z,13.43
2023-05-14T08:33:21.113Z,12.83
2023-05-14T08:36:08.781Z,15.53
2023-05-14T08:38:35.719Z,10.67
2023-05-14T08:41:05.882Z,11.90
2023-05-14T08:44:15.027Z,16.50
2023-05-14T08:46:42.234Z,16.83
2023-05-14T08:49:43.011Z,12.73
2023-05-14T08:52:10.729Z,16.53
2023-05-14T08:54:38.225Z,12.40
2023-05-14T08:57:06.058Z,17.63
2023-05-14T08:59:32.963Z,39.17
2023-05-14T09:02:05.069Z,11.50
2023-05-14T09:04:32.840Z,17.67
2023-05-14T09:07:02.685Z,9.83
2023-05-14T09:09:30.749Z,17.00
2023-05-14T09:11:57.690Z,14.67
2023-05-14T09:14:24.592Z,9.87
2023-05-14T09:16:52.213Z,8.17
2023-05-14T09:19:19.899Z,12.23
2023-05-14T09:21:49.081Z,11.20
2023-05-14T09:24:21.418Z,12.47
2023-05-14T09:26:54.906Z,10.53
2023-05-14T09:29:21.940Z,21.40
2023-05-14T09:31:51.594Z,22.53
2023-05-14T09:34:30.512Z,10.03
2023-05-14T09:37:03.016Z,11.27
2023-05-14T09:39:31.626Z,12.57
2023-05-14T09:41:58.632Z,12.60
2023-05-14T09:44:26.073Z,17.90
2023-05-14T09:46:54.285Z,13.23
2023-05-14T09:49:21.623Z,12.30
2023-05-14T09:51:51.928Z,12.23
2023-05-14T09:54:18.908Z,18.10
2023-05-14T09:56:45.855Z,12.23
2023-05-14T09:59:12.810Z,19.00
2023-05-14T10:01:43.313Z,13.53
2023-05-14T10:04:11.195Z,15.60
2023-05-14T10:06:39.757Z,13.10
2023-05-14T10:09:13.023Z,13.53
2023-05-14T10:11:44.325Z,15.70
2023-05-14T10:14:21.029Z,13.07
2023-05-14T10:16:50.836Z,13.93
2023-05-14T10:19:20.815Z,21.57
2023-05-14T10:21:57.412Z,19.90
2023-05-14T10:24:26.000Z,15.43
2023-05-14T10:26:53.533Z,16.50
2023-05-14T10:29:20.724Z,10.83
2023-05-14T10:31:55.799Z,14.73
2023-05-14T10:34:43.826Z,14.60
2023-05-14T10:37:17.260Z,11.40
2023-05-14T10:39:58.245Z,17.20
2023-05-14T10:42:39.644Z,16.60
2023-05-14T10:45:08.745Z,12.27
2023-05-14T10:47:38.112Z,17.93
2023-05-14T10:50:11.139Z,16.43
2023-05-14T10:52:38.035Z,13.13
2023-05-14T10:55:10.777Z,11.97
2023-05-14T10:57:40.200Z,16.13
2023-05-14T11:00:08.946Z,14.03
2023-05-14T11:02:38.620Z,20.23
2023-05-14T11:05:13.768Z,15.67
2023-05-14T11:07:43.688Z,13.57
2023-05-14T11:10:19.265Z,11.77
2023-05-14T11:12:51.022Z,17.70
2023-05-14T11:15:23.461Z,24.13
2023-05-14T11:17:53.624Z,17.40
2023-05-14T11:20:21.441Z,17.83
2023-05-14T11:22:51.686Z,15.93
2023-05-14T11:25:18.925Z,14.33
2023-05-14T11:27:47.448Z,16.40
2023-05-14T11:30:21.758Z,17.50
2023-05-14T11:32:50.664Z,20.03
2023-05-14T11:35:18.501Z,15.60
2023-05-14T11:37:52.282Z,16.70
2023-05-14T11:40:19.338Z,21.17
2023-05-14T11:42:46.303Z,12.00
2023-05-14T11:45:23.646Z,16.23
2023-05-14T11:47:50.554Z,12.10
2023-05-14T11:50:17.467Z,10.40
2023-05-14T11:52:44.364Z,19.43
2023-05-14T11:55:12.732Z,16.37
2023-05-14T11:57:40.859Z,12.83
2023-05-14T12:00:16.720Z,10.40
2023-05-14T12:02:44.009Z,12.23
2023-05-14T12:05:13.610Z,19.17
2023-05-14T12:07:42.002Z,12.10
2023-05-14T12:10:12.953Z,12.23
2023-05-14T12:12:40.097Z,11.30
2023-05-14T12:15:14.329Z,21.13
2023-05-14T12:17:41.979Z,16.30
2023-05-14T12:20:11.140Z,13.23
2023-05-14T12:22:38.808Z,12.57
2023-05-14T12:25:14.773Z,9.97
2023-05-14T12:27:44.822Z,15.87
2023-05-14T12:30:21.273Z,12.13
2023-05-14T12:32:52.032Z,22.30
2023-05-14T12:35:20.582Z,8.90
2023-05-14T12:37:47.632Z,13.90
2023-05-14T12:40:14.814Z,9.50
2023-05-14T12:42:42.067Z,16.67
2023-05-14T12:45:09.577Z,14.10
2023-05-14T12:47:37.475Z,8.90
2023-05-14T12:50:06.080Z,22.90
2023-05-14T12:52:38.402Z,12.93
2023-05-14T12:55:09.268Z,11.47
2023-05-14T12:57:38.868Z,10.40
2023-05-14T13:00:08.436Z,9.40
2023-05-14T13:02:42.721Z,13.10
2023-05-14T13:05:11.615Z,10.87
2023-05-14T13:07:38.848Z,10.10
2023-05-14T13:10:06.739Z,13.00
2023-05-14T13:12:33.964Z,14.57
2023-05-14T13:15:00.908Z,12.30
2023-05-14T13:17:27.910Z,12.03
2023-05-14T13:19:54.920Z,10.73
2023-05-14T13:22:21.802Z,11.20
2023-05-14T13:24:48.679Z,7.87
2023-05-14T13:27:15.663Z,11.33
2023-05-14T13:29:42.593Z,12.50
2023-05-14T13:32:09.520Z,18.17
2023-05-14T13:34:36.481Z,8.13
2023-05-14T13:37:04.022Z,10.13
2023-05-14T13:39:31.016Z,9.53
2023-05-14T13:41:58.012Z,15.70
2023-05-14T13:44:25.103Z,11.57
2023-05-14T13:46:52.015Z,9.47
2023-05-14T13:49:18.982Z,13.60
2023-05-14T13:51:45.987Z,10.43
2023-05-14T13:54:12.853Z,10.80
2023-05-14T13:56:39.741Z,9.10
2023-05-14T13:59:06.677Z,9.40
2023-05-14T14:01:33.656Z,14.53
2023-05-14T14:04:00.610Z,12.00
2023-05-14T14:06:27.567Z,10.90
2023-05-14T14:08:54.512Z,8.73
2023-05-14T14:11:21.919Z,9.70
2023-05-14T14:13:48.864Z,8.93
2023-05-14T14:16:16.249Z,8.10
2023-05-14T14:18:43.437Z,13.33
2023-05-14T14:21:10.707Z,12.80
2023-05-14T14:23:37.587Z,12.00
2023-05-14T14:26:04.607Z,10.80
2023-05-14T14:28:31.571Z,9.33
2023-05-14T14:30:58.593Z,13.07
2023-05-14T14:33:25.827Z,9.43
2023-05-14T14:35:52.962Z,12.87
2023-05-14T14:38:19.887Z,8.50
2023-05-14T14:40:46.856Z,12.73
2023-05-14T14:43:13.728Z,10.23
2023-05-14T14:45:40.662Z,18.77
2023-05-14T14:48:33.794Z,8.60
2023-05-14T14:51:01.551Z,9.13
2023-05-14T14:53:28.481Z,16.23
2023-05-14T14:55:56.220Z,24.47
2023-05-14T14:58:23.785Z,11.53
2023-05-14T15:00:54.038Z,15.80
2023-05-14T15:03:21.877Z,8.30
2023-05-14T15:05:49.450Z,12.10
2023-05-14T15:08:16.427Z,12.27
2023-05-14T15:10:44.943Z,9.83
2023-05-14T15:13:12.809Z,11.27
2023-05-14T15:15:39.732Z,12.40
2023-05-14T15:18:06.695Z,14.83
2023-05-14T15:20:33.873Z,21.50
2023-05-14T15:23:00.785Z,17.33
2023-05-14T15:25:28.660Z,15.40
2023-05-14T15:27:55.537Z,16.80
2023-05-14T15:30:22.471Z,11.13
2023-05-14T15:32:49.948Z,9.43
2023-05-14T15:35:17.023Z,11.10
2023-05-14T15:37:45.111Z,11.47
2023-05-14T15:40:12.602Z,11.00
2023-05-14T15:42:43.878Z,13.90
2023-05-14T15:45:14.700Z,18.20
2023-05-14T15:47:42.034Z,9.00
2023-05-14T15:50:09.370Z,8.97
2023-05-14T15:52:36.562Z,11.53
2023-05-14T15:55:06.516Z,16.27
2023-05-14T15:57:33.938Z,13.87
2023-05-14T16:00:00.887Z,10.37
2023-05-14T16:02:30.477Z,8.00
2023-05-14T16:04:57.511Z,14.93
2023-05-14T16:07:24.450Z,11.53
2023-05-14T16:09:51.732Z,8.10
2023-05-14T16:12:18.717Z,14.40
2023-05-14T16:14:45.693Z,8.73
2023-05-14T16:17:12.704Z,8.50
2023-05-14T16:19:39.903Z,8.03
2023-05-14T16:22:06.881Z,8.90
2023-05-14T16:24:33.830Z,8.73
2023-05-14T16:27:00.855Z,9.60
2023-05-14T16:29:27.900Z,10.10
2023-05-14T16:31:55.041Z,9.20
2023-05-14T16:34:22.046Z,8.90
2023-05-14T16:36:49.017Z,15.00
2023-05-14T16:39:16.564Z,8.50
2023-05-14T16:41:43.474Z,9.30
2023-05-14T16:44:10.631Z,8.73
2023-05-14T16:46:37.862Z,10.40
2023-05-14T16:49:04.837Z,9.50
2023-05-14T16:51:31.773Z,14.30
2023-05-14T16:53:58.748Z,10.17
2023-05-14T16:56:26.491Z,8.80
2023-05-14T16:58:53.532Z,11.50
2023-05-14T17:01:20.638Z,8.60
2023-05-14T17:03:47.649Z,8.60
2023-05-14T17:06:14.556Z,9.50
2023-05-14T17:08:41.466Z,10.93
2023-05-14T17:11:08.375Z,14.53
2023-05-14T17:13:35.643Z,8.73
2023-05-14T17:16:02.640Z,8.93
2023-05-14T17:18:29.824Z,16.83
2023-05-14T17:20:56.891Z,12.90
2023-05-14T17:23:23.783Z,9.60
2023-05-14T17:25:50.750Z,12.87
2023-05-14T17:28:17.651Z,10.13
2023-05-14T17:30:44.551Z,11.70
2023-05-14T17:33:11.701Z,10.23
2023-05-14T17:35:38.734Z,12.37
2023-05-14T17:38:05.652Z,8.83
2023-05-14T17:40:33.423Z,9.13
2023-05-14T17:43:00.500Z,8.30
2023-05-14T17:45:29.454Z,10.23
2023-05-14T17:47:59.253Z,8.70
2023-05-14T17:50:26.270Z,9.73
2023-05-14T17:52:53.976Z,13.10
2023-05-14T17:55:21.356Z,10.87
2023-05-14T17:57:48.306Z,14.93
2023-05-14T18:00:15.524Z,11.87
2023-05-14T18:02:42.476Z,8.43
2023-05-14T18:05:09.653Z,13.00
2023-05-14T18:07:36.779Z,9.70
2023-05-14T18:10:04.473Z,13.97
2023-05-14T18:12:31.411Z,8.60
2023-05-14T18:14:58.306Z,9.53
2023-05-14T18:17:25.327Z,16.60
2023-05-14T18:19:52.258Z,10.63
2023-05-14T18:22:21.480Z,11.20
2023-05-14T18:24:48.596Z,8.83
2023-05-14T18:27:15.674Z,15.13
2023-05-14T18:29:43.333Z,9.67
2023-05-14T18:32:10.251Z,11.57
2023-05-14T18:34:37.155Z,10.93
2023-05-14T18:37:04.138Z,8.93
2023-05-14T18:39:31.067Z,13.23
2023-05-14T18:41:57.992Z,10.80
2023-05-14T18:44:24.894Z,9.40
2023-05-14T18:46:52.309Z,8.03
2023-05-14T18:49:19.212Z,8.47
2023-05-14T18:51:46.837Z,12.10
2023-05-14T18:54:13.724Z,7.60
2023-05-14T18:56:46.767Z,8.60
2023-05-14T18:59:14.474Z,9.10
2023-05-14T19:01:41.494Z,11.10
2023-05-14T19:04:08.583Z,10.70
2023-05-14T19:06:36.145Z,11.07
2023-05-14T19:09:04.280Z,12.23
2023-05-14T19:11:31.223Z,8.90
2023-05-14T19:13:58.137Z,16.10
2023-05-14T19:16:25.107Z,10.97
2023-05-14T19:18:52.330Z,9.77
2023-05-14T19:21:19.360Z,14.00
2023-05-14T19:23:46.404Z,12.07
2023-05-14T19:26:13.277Z,15.63
2023-05-14T19:28:40.390Z,10.73
2023-05-14T19:31:07.434Z,14.10
2023-05-14T19:33:34.372Z,12.70
2023-05-14T19:36:01.238Z,10.37
2023-05-14T19:38:28.140Z,12.77
2023-05-14T19:40:56.898Z,10.30
2023-05-14T19:43:25.597Z,10.87
2023-05-14T19:45:52.575Z,14.37
2023-05-14T19:48:19.638Z,8.07
2023-05-14T19:50:47.329Z,12.90
2023-05-14T19:53:14.629Z,14.10
2023-05-14T19:55:41.791Z,9.27
2023-05-14T19:58:08.909Z,8.67
2023-05-14T20:00:37.067Z,11.40
2023-05-14T20:03:05.758Z,10.43
2023-05-14T20:05:34.306Z,12.90
2023-05-14T20:08:01.265Z,13.53
2023-05-14T20:10:28.480Z,10.90
2023-05-14T20:12:55.591Z,9.63
2023-05-14T20:15:22.499Z,15.63
2023-05-14T20:17:49.466Z,11.40
2023-05-14T20:20:16.658Z,10.87
2023-05-14T20:22:44.079Z,11.33
2023-05-14T20:25:11.153Z,7.73
2023-05-14T20:27:38.254Z,14.70
2023-05-14T20:30:07.470Z,10.70
2023-05-14T20:32:34.585Z,10.53
2023-05-14T20:35:02.297Z,8.73
2023-05-14T20:37:30.470Z,11.67
2023-05-14T20:39:57.469Z,9.50
2023-05-14T20:42:25.800Z,12.77
2023-05-14T20:44:53.668Z,10.57
2023-05-14T20:47:24.166Z,10.20
2023-05-14T20:49:51.457Z,11.40
2023-05-14T20:52:18.922Z,10.13
2023-05-14T20:54:46.174Z,9.87
2023-05-14T20:57:17.829Z,15.60
2023-05-14T20:59:46.011Z,12.43
2023-05-14T21:02:13.039Z,13.40
2023-05-14T21:04:40.070Z,9.57
2023-05-14T21:07:07.346Z,10.60
2023-05-14T21:09:34.235Z,12.03
2023-05-14T21:12:01.091Z,10.17
2023-05-14T21:14:27.942Z,9.00
2023-05-14T21:16:54.836Z,12.77
2023-05-14T21:19:23.267Z,11.27
2023-05-14T21:21:50.338Z,9.73
2023-05-14T21:24:17.268Z,11.07
2023-05-14T21:26:44.149Z,19.83
2023-05-14T21:29:11.325Z,13.10
2023-05-14T21:31:38.286Z,12.07
2023-05-14T21:34:05.359Z,12.83
2023-05-14T21:36:32.293Z,12.50
2023-05-14T21:38:59.197Z,12.00
2023-05-14T21:41:26.222Z,12.40
2023-05-14T21:43:53.203Z,12.33
2023-05-14T21:46:20.090Z,11.07
2023-05-14T21:48:47.152Z,10.27
2023-05-14T21:51:14.121Z,14.50
2023-05-14T21:53:41.029Z,11.50
2023-05-14T21:56:08.285Z,12.40
2023-05-14T21:58:35.784Z,13.73
2023-05-14T22:01:02.766Z,37.83
2023-05-14T22:03:29.710Z,10.20
2023-05-14T22:05:56.958Z,10.90
2023-05-14T22:08:24.152Z,15.07
2023-05-14T22:10:51.050Z,11.63
2023-05-14T22:13:17.926Z,14.60
2023-05-14T22:18:12.822Z,10.93
2023-05-14T22:20:40.099Z,11.53
2023-05-14T22:23:07.142Z,9.93
2023-05-14T22:25:34.283Z,11.90
2023-05-14T22:28:01.197Z,12.20
2023-05-14T22:30:28.089Z,14.93
2023-05-14T22:32:54.977Z,32.43
2023-05-14T22:35:22.149Z,17.23
2023-05-14T22:37:49.109Z,13.93
2023-05-14T22:40:16.101Z,14.27
2023-05-14T22:42:43.023Z,12.87
2023-05-14T22:45:10.463Z,15.97
2023-05-14T22:47:38.459Z,12.83
2023-05-14T22:50:11.211Z,14.57
2023-05-14T22:52:39.246Z,12.80
2023-05-14T22:55:07.202Z,15.97
2023-05-14T22:57:34.566Z,11.80
2023-05-14T23:00:01.566Z,12.20
2023-05-14T23:02:28.545Z,12.00
2023-05-14T23:04:55.770Z,13.20
2023-05-14T23:07:22.870Z,13.37
2023-05-14T23:09:49.771Z,21.63
2023-05-14T23:12:16.731Z,13.10
2023-05-14T23:14:43.605Z,13.40
2023-05-14T23:17:10.513Z,11.83
2023-05-14T23:19:37.421Z,12.77
2023-05-14T23:22:04.465Z,12.00
2023-05-14T23:24:31.347Z,14.73
2023-05-14T23:26:58.243Z,14.43
2023-05-14T23:29:25.194Z,13.30
2023-05-14T23:31:52.145Z,12.20
2023-05-14T23:34:19.033Z,14.30
2023-05-14T23:36:46.028Z,10.17
2023-05-14T23:39:12.971Z,12.90
2023-05-14T23:41:39.861Z,13.27
2023-05-14T23:44:07.285Z,12.53
2023-05-14T23:46:34.336Z,13.10
2023-05-14T23:49:01.475Z,12.73
2023-05-14T23:51:28.426Z,12.03
2023-05-14T23:53:56.358Z,15.10
2023-05-14T23:56:30.184Z,20.00
2023-05-14T23:58:57.175Z,13.90
